createdAt,value
2022-09-25T00:01:59.083Z,6.88
2022-09-25T00:04:30.527Z,6.88
2022-09-25T00:07:00.310Z,5.70
2022-09-25T00:09:30.146Z,6.90
2022-09-25T00:12:00.995Z,6.05
2022-09-25T00:14:31.098Z,6.88
2022-09-25T00:17:00.938Z,7.53
2022-09-25T00:19:49.761Z,7.68
2022-09-25T00:22:20.374Z,6.57
2022-09-25T00:24:50.608Z,6.80
2022-09-25T00:27:20.649Z,5.97
2022-09-25T00:29:50.570Z,7.65
2022-09-25T00:32:23.720Z,6.22
2022-09-25T00:34:55.012Z,6.20
2022-09-25T00:37:24.841Z,5.70
2022-09-25T00:39:55.107Z,5.80
2022-09-25T00:42:24.916Z,5.78
2022-09-25T00:45:01.086Z,5.50
2022-09-25T00:47:58.750Z,5.45
2022-09-25T00:50:35.176Z,6.43
2022-09-25T00:53:10.697Z,6.40
2022-09-25T00:55:44.228Z,6.53
2022-09-25T00:58:18.056Z,6.20
2022-09-25T01:00:48.303Z,5.90
2022-09-25T01:03:19.095Z,6.53
2022-09-25T01:05:51.100Z,5.50
2022-09-25T01:08:24.992Z,5.97
2022-09-25T01:10:55.759Z,5.90
2022-09-25T01:13:25.977Z,5.57
2022-09-25T01:16:00.624Z,6.28
2022-09-25T01:18:45.329Z,6.40
2022-09-25T01:21:31.720Z,5.82
2022-09-25T01:24:24.946Z,5.32
2022-09-25T01:27:21.120Z,6.40
2022-09-25T01:29:58.656Z,5.45
2022-09-25T01:32:34.517Z,6.00
2022-09-25T01:35:09.809Z,6.75
2022-09-25T01:37:45.537Z,5.90
2022-09-25T01:40:23.396Z,6.85
2022-09-25T01:43:00.838Z,5.72
2022-09-25T01:45:37.876Z,5.57
2022-09-25T01:48:10.593Z,6.18
2022-09-25T01:50:45.533Z,5.78
2022-09-25T01:53:21.500Z,5.93
2022-09-25T01:55:57.777Z,6.05
2022-09-25T01:58:32.941Z,5.93
2022-09-25T02:01:09.101Z,5.85
2022-09-25T02:03:44.228Z,6.38
2022-09-25T02:06:19.784Z,5.80
2022-09-25T02:08:54.333Z,5.63
2022-09-25T02:11:29.588Z,5.32
2022-09-25T02:14:05.628Z,6.10
2022-09-25T02:16:43.585Z,6.30
2022-09-25T02:19:34.429Z,5.20
2022-09-25T02:22:09.069Z,6.00
2022-09-25T02:24:44.449Z,5.50
2022-09-25T02:27:15.707Z,6.13
2022-09-25T02:29:45.773Z,5.63
2022-09-25T02:32:20.136Z,6.10
2022-09-25T02:34:50.063Z,5.38
2022-09-25T02:37:20.430Z,6.03
2022-09-25T02:39:53.453Z,6.20
2022-09-25T02:42:33.813Z,6.10
2022-09-25T02:45:13.442Z,6.05
2022-09-25T02:47:58.415Z,7.25
2022-09-25T02:50:34.239Z,5.95
2022-09-25T02:53:11.088Z,6.15
2022-09-25T02:55:46.393Z,6.28
2022-09-25T02:58:19.985Z,6.20
2022-09-25T03:00:53.405Z,6.00
2022-09-25T03:03:28.053Z,6.50
2022-09-25T03:05:58.995Z,5.72
2022-09-25T03:08:41.932Z,6.32
2022-09-25T03:11:14.473Z,5.97
2022-09-25T03:13:45.495Z,6.32
2022-09-25T03:16:20.372Z,5.55
2022-09-25T03:18:51.873Z,5.88
2022-09-25T03:21:21.973Z,6.03
2022-09-25T03:23:51.737Z,5.53
2022-09-25T03:26:21.536Z,5.63
2022-09-25T03:28:51.659Z,5.63
2022-09-25T03:31:22.227Z,6.40
2022-09-25T03:33:53.634Z,5.78
2022-09-25T03:36:25.070Z,5.75
2022-09-25T03:38:58.972Z,4.95
2022-09-25T03:41:31.003Z,5.50
2022-09-25T03:44:01.304Z,6.13
2022-09-25T03:46:33.563Z,5.50
2022-09-25T03:49:05.396Z,6.20
2022-09-25T03:51:35.634Z,5.95
2022-09-25T03:54:05.713Z,6.90
2022-09-25T03:56:35.625Z,7.03
2022-09-25T03:59:05.423Z,6.85
2022-09-25T04:01:37.053Z,6.28
2022-09-25T04:04:08.828Z,6.68
2022-09-25T04:06:38.783Z,7.80
2022-09-25T04:09:08.733Z,6.65
2022-09-25T04:11:39.064Z,7.20
2022-09-25T04:14:08.900Z,6.13
2022-09-25T04:16:39.131Z,6.35
2022-09-25T04:19:11.393Z,6.18
2022-09-25T04:21:41.398Z,6.18
2022-09-25T04:24:29.231Z,6.82
2022-09-25T04:26:59.241Z,6.85
2022-09-25T04:29:29.155Z,6.45
2022-09-25T04:32:16.230Z,7.18
2022-09-25T04:34:47.807Z,6.70
2022-09-25T04:37:17.629Z,7.40
2022-09-25T04:39:47.976Z,7.60
2022-09-25T04:42:18.281Z,6.88
2022-09-25T04:44:48.045Z,6.55
2022-09-25T04:47:18.118Z,7.97
2022-09-25T04:49:49.671Z,8.00
2022-09-25T04:52:20.654Z,8.13
2022-09-25T04:54:50.474Z,7.38
2022-09-25T04:57:39.099Z,6.82
2022-09-25T05:00:19.349Z,7.32
2022-09-25T05:02:49.671Z,7.30
2022-09-25T05:05:21.029Z,6.75
2022-09-25T05:07:54.206Z,6.85
2022-09-25T05:10:24.916Z,8.65
2022-09-25T05:12:56.344Z,7.28
2022-09-25T05:15:26.671Z,6.95
2022-09-25T05:18:02.885Z,8.10
2022-09-25T05:20:36.142Z,6.63
2022-09-25T05:23:06.116Z,7.18
2022-09-25T05:25:36.275Z,7.93
2022-09-25T05:28:06.279Z,9.60
2022-09-25T05:30:37.582Z,8.70
2022-09-25T05:33:07.746Z,9.23
2022-09-25T05:35:38.929Z,9.55
2022-09-25T05:38:09.036Z,8.35
2022-09-25T05:40:40.181Z,7.85
2022-09-25T05:43:10.180Z,8.27
2022-09-25T05:45:39.927Z,7.72
2022-09-25T05:48:10.560Z,7.45
2022-09-25T05:50:41.681Z,8.13
2022-09-25T05:53:11.548Z,7.40
2022-09-25T05:55:41.433Z,7.88
2022-09-25T05:58:11.184Z,8.02
2022-09-25T06:00:41.000Z,8.00
2022-09-25T06:03:11.065Z,7.57
2022-09-25T06:05:42.609Z,7.82
2022-09-25T06:08:12.981Z,8.05
2022-09-25T06:10:43.685Z,7.68
2022-09-25T06:13:14.981Z,8.63
2022-09-25T06:15:45.208Z,8.55
2022-09-25T06:18:15.565Z,8.07
2022-09-25T06:20:49.128Z,8.40
2022-09-25T06:23:20.048Z,7.45
2022-09-25T06:25:50.308Z,7.97
2022-09-25T06:28:20.362Z,8.35
2022-09-25T06:30:50.345Z,7.40
2022-09-25T06:33:20.322Z,7.90
2022-09-25T06:35:51.488Z,7.55
2022-09-25T06:38:21.389Z,8.32
2022-09-25T06:40:51.391Z,8.68
2022-09-25T06:43:21.369Z,7.90
2022-09-25T06:45:51.501Z,8.43
2022-09-25T06:48:22.170Z,7.18
2022-09-25T06:50:55.702Z,7.07
2022-09-25T06:53:26.869Z,6.88
2022-09-25T06:55:58.485Z,7.18
2022-09-25T06:58:30.388Z,7.25
2022-09-25T07:01:09.079Z,7.30
2022-09-25T07:03:47.733Z,7.60
2022-09-25T07:06:26.148Z,7.75
2022-09-25T07:08:57.177Z,7.38
2022-09-25T07:11:29.168Z,7.70
2022-09-25T07:13:59.453Z,7.15
2022-09-25T07:16:34.465Z,7.50
2022-09-25T07:19:04.541Z,7.28
2022-09-25T07:21:35.827Z,7.55
2022-09-25T07:24:06.025Z,7.55
2022-09-25T07:26:39.782Z,8.40
2022-09-25T07:29:12.789Z,8.27
2022-09-25T07:31:44.522Z,7.43
2022-09-25T07:34:15.368Z,7.40
2022-09-25T07:36:47.539Z,8.27
2022-09-25T07:39:18.718Z,8.07
2022-09-25T07:41:49.132Z,8.00
2022-09-25T07:44:38.345Z,8.13
2022-09-25T07:47:10.791Z,7.43
2022-09-25T07:49:41.190Z,7.07
2022-09-25T07:52:14.061Z,7.22
2022-09-25T07:54:44.197Z,6.30
2022-09-25T07:57:14.626Z,7.25
2022-09-25T07:59:45.438Z,6.22
2022-09-25T08:02:15.734Z,7.38
2022-09-25T08:04:45.960Z,6.88
2022-09-25T08:07:18.684Z,10.23
2022-09-25T08:09:48.693Z,7.78
2022-09-25T08:12:18.852Z,7.25
2022-09-25T08:14:48.848Z,7.72
2022-09-25T08:17:19.083Z,6.72
2022-09-25T08:19:51.899Z,7.05
2022-09-25T08:22:23.401Z,7.40
2022-09-25T08:24:53.734Z,6.35
2022-09-25T08:27:23.819Z,7.05
2022-09-25T08:29:53.864Z,7.53
2022-09-25T08:32:26.548Z,7.63
2022-09-25T08:35:01.626Z,7.40
2022-09-25T08:37:33.216Z,6.63
2022-09-25T08:40:03.677Z,6.07
2022-09-25T08:42:38.280Z,5.50
2022-09-25T08:45:37.264Z,6.20
2022-09-25T08:48:27.220Z,6.32
2022-09-25T08:50:57.554Z,6.00
2022-09-25T08:53:29.099Z,5.60
2022-09-25T08:56:17.879Z,4.75
2022-09-25T08:58:53.348Z,4.85
2022-09-25T09:01:27.237Z,4.60
2022-09-25T09:04:05.751Z,5.55
2022-09-25T09:06:38.995Z,4.78
2022-09-25T09:09:16.142Z,4.50
2022-09-25T09:11:52.668Z,4.80
2022-09-25T09:14:23.743Z,5.70
2022-09-25T09:17:01.421Z,4.60
2022-09-25T09:19:31.474Z,5.03
2022-09-25T09:22:10.714Z,4.90
2022-09-25T09:24:55.037Z,7.78
2022-09-25T09:27:52.136Z,4.95
2022-09-25T09:30:28.471Z,4.32
2022-09-25T09:33:18.479Z,4.45
2022-09-25T09:36:00.173Z,4.32
2022-09-25T09:38:39.692Z,4.30
2022-09-25T09:41:35.273Z,4.53
2022-09-25T09:44:20.394Z,4.43
2022-09-25T09:46:59.136Z,4.35
2022-09-25T09:49:34.405Z,4.30
2022-09-25T09:52:10.668Z,4.10
2022-09-25T09:54:46.266Z,4.65
2022-09-25T09:57:23.314Z,4.00
2022-09-25T10:00:04.402Z,4.60
2022-09-25T10:02:40.016Z,4.75
2022-09-25T10:05:28.824Z,4.90
2022-09-25T10:07:59.063Z,5.20
2022-09-25T10:10:35.730Z,5.50
2022-09-25T10:13:16.524Z,6.68
2022-09-25T10:15:51.382Z,5.00
2022-09-25T10:18:23.970Z,4.05
2022-09-25T10:21:04.126Z,4.10
2022-09-25T10:23:40.128Z,3.92
2022-09-25T10:26:26.506Z,4.45
2022-09-25T10:28:59.822Z,3.67
2022-09-25T10:31:33.991Z,3.53
2022-09-25T10:34:07.122Z,3.35
2022-09-25T10:36:40.678Z,4.47
2022-09-25T10:39:46.958Z,9.80
2022-09-25T10:42:38.910Z,3.55
2022-09-25T10:45:31.199Z,3.85
2022-09-25T10:48:18.625Z,3.47
2022-09-25T10:51:08.162Z,3.78
2022-09-25T10:53:38.363Z,4.15
2022-09-25T10:56:12.714Z,3.45
2022-09-25T10:58:46.413Z,3.35
2022-09-25T11:01:18.662Z,4.32
2022-09-25T11:03:53.824Z,3.33
2022-09-25T11:06:27.026Z,3.45
2022-09-25T11:09:08.096Z,3.00
2022-09-25T11:11:41.216Z,3.63
2022-09-25T11:14:22.737Z,3.28
2022-09-25T11:16:57.629Z,3.55
2022-09-25T11:19:30.199Z,3.40
2022-09-25T11:22:17.954Z,3.80
2022-09-25T11:25:02.919Z,3.33
2022-09-25T11:27:38.136Z,4.13
2022-09-25T11:30:13.295Z,3.67
2022-09-25T11:32:53.001Z,3.05
2022-09-25T11:35:44.984Z,3.40
2022-09-25T11:38:43.788Z,3.03
2022-09-25T11:41:23.378Z,3.05
2022-09-25T11:44:03.358Z,3.22
2022-09-25T11:46:42.923Z,3.78
2022-09-25T11:49:22.792Z,2.97
2022-09-25T11:52:37.466Z,3.20
2022-09-25T11:55:32.088Z,3.15
2022-09-25T11:58:11.493Z,2.83
2022-09-25T12:00:47.178Z,2.47
2022-09-25T12:03:44.525Z,2.80
2022-09-25T12:06:38.854Z,3.38
2022-09-25T12:09:23.635Z,2.78
2022-09-25T12:12:03.544Z,3.47
2022-09-25T12:14:43.504Z,2.50
2022-09-25T12:17:21.228Z,2.45
2022-09-25T12:19:59.749Z,3.10
2022-09-25T12:22:44.585Z,2.85
2022-09-25T12:25:27.112Z,2.60
2022-09-25T12:28:03.419Z,2.63
2022-09-25T12:30:40.379Z,2.38
2022-09-25T12:33:23.686Z,2.50
2022-09-25T12:35:59.474Z,2.42
2022-09-25T12:38:39.950Z,2.55
2022-09-25T12:41:18.108Z,2.03
2022-09-25T12:43:54.371Z,2.88
2022-09-25T12:46:30.188Z,2.97
2022-09-25T12:49:05.810Z,2.70
2022-09-25T12:51:41.608Z,3.13
2022-09-25T12:54:25.981Z,2.38
2022-09-25T12:57:00.136Z,2.80
2022-09-25T12:59:36.373Z,2.47
2022-09-25T13:02:12.519Z,2.47
2022-09-25T13:04:59.165Z,2.97
2022-09-25T13:07:35.498Z,2.75
2022-09-25T13:10:19.346Z,3.00
2022-09-25T13:12:51.318Z,2.88
2022-09-25T13:15:25.164Z,2.38
2022-09-25T13:17:56.006Z,3.10
2022-09-25T13:20:49.067Z,3.05
2022-09-25T13:23:28.608Z,2.90
2022-09-25T13:26:03.143Z,2.60
2022-09-25T13:28:37.313Z,3.22
2022-09-25T13:31:11.269Z,3.60
2022-09-25T13:33:50.193Z,3.50
2022-09-25T13:36:34.453Z,3.00
2022-09-25T13:41:59.821Z,4.30
2022-09-25T13:45:06.521Z,3.72
2022-09-25T13:48:01.720Z,3.58
2022-09-25T13:50:45.456Z,2.97
2022-09-25T13:53:28.083Z,3.72
2022-09-25T13:56:29.245Z,2.92
2022-09-25T13:59:36.319Z,2.97
2022-09-25T14:02:38.882Z,3.17
2022-09-25T14:05:09.049Z,2.65
2022-09-25T14:07:42.124Z,2.33
2022-09-25T14:10:13.098Z,2.75
2022-09-25T14:12:45.539Z,2.90
2022-09-25T14:15:24.144Z,4.97
2022-09-25T14:17:57.052Z,4.35
2022-09-25T14:20:34.549Z,5.03
2022-09-25T14:23:08.345Z,3.05
2022-09-25T14:28:23.403Z,3.42
2022-09-25T14:31:18.115Z,3.38
2022-09-25T14:34:12.583Z,2.97
2022-09-25T14:37:00.637Z,3.08
2022-09-25T14:39:40.074Z,2.97
2022-09-25T14:42:38.189Z,3.13
2022-09-25T14:45:32.472Z,2.90
2022-09-25T14:48:07.118Z,3.33
2022-09-25T14:50:46.764Z,4.13
2022-09-25T14:53:27.876Z,3.50
2022-09-25T14:56:01.942Z,4.97
2022-09-25T14:58:34.397Z,4.63
2022-09-25T15:01:15.244Z,4.50
2022-09-25T15:03:50.192Z,4.32
2022-09-25T15:06:29.332Z,4.40
2022-09-25T15:09:01.966Z,4.22
2022-09-25T15:11:41.300Z,3.88
2022-09-25T15:14:12.962Z,4.15
2022-09-25T15:17:02.045Z,4.22
2022-09-25T15:19:36.142Z,3.75
2022-09-25T15:22:11.523Z,4.20
2022-09-25T15:24:49.665Z,4.07
2022-09-25T15:27:23.033Z,4.10
2022-09-25T15:29:53.305Z,4.75
2022-09-25T15:32:29.514Z,4.80
2022-09-25T15:35:18.468Z,4.90
2022-09-25T15:37:49.311Z,4.80
2022-09-25T15:40:25.818Z,4.57
2022-09-25T15:42:56.716Z,4.32
2022-09-25T15:45:38.232Z,4.70
2022-09-25T15:48:30.233Z,4.07
2022-09-25T15:51:04.049Z,4.95
2022-09-25T15:53:36.382Z,5.00
2022-09-25T15:56:17.365Z,4.43
2022-09-25T15:58:50.481Z,4.82
2022-09-25T16:01:42.313Z,4.47
2022-09-25T16:04:39.353Z,4.90
2022-09-25T16:07:34.080Z,4.93
2022-09-25T16:10:20.529Z,4.90
2022-09-25T16:12:54.503Z,5.72
2022-09-25T16:15:51.008Z,5.55
2022-09-25T16:18:42.039Z,5.25
2022-09-25T16:21:22.630Z,6.00
2022-09-25T16:23:56.686Z,5.20
2022-09-25T16:26:39.039Z,5.03
2022-09-25T16:29:22.945Z,5.20
2022-09-25T16:31:57.408Z,5.15
2022-09-25T16:34:30.321Z,5.68
2022-09-25T16:37:04.391Z,4.73
2022-09-25T16:39:37.389Z,4.93
2022-09-25T16:42:27.315Z,5.25
2022-09-25T16:45:05.187Z,5.40
2022-09-25T16:47:37.312Z,5.45
2022-09-25T16:50:09.996Z,5.75
2022-09-25T16:52:43.416Z,6.15
2022-09-25T16:55:24.411Z,6.00
2022-09-25T16:57:55.621Z,6.35
2022-09-25T17:00:28.677Z,6.18
2022-09-25T17:02:59.057Z,5.97
2022-09-25T17:05:32.088Z,6.90
2022-09-25T17:08:18.226Z,7.00
2022-09-25T17:10:52.420Z,5.85
2022-09-25T17:13:28.462Z,6.82
2022-09-25T17:15:58.757Z,6.35
2022-09-25T17:18:29.012Z,5.35
2022-09-25T17:21:02.706Z,6.53
2022-09-25T17:23:36.996Z,6.20
2022-09-25T17:26:17.891Z,7.30
2022-09-25T17:28:48.184Z,6.03
2022-09-25T17:31:24.214Z,6.78
2022-09-25T17:33:57.703Z,6.22
2022-09-25T17:36:27.720Z,6.97
2022-09-25T17:38:57.741Z,6.03
2022-09-25T17:41:34.769Z,7.30
2022-09-25T17:44:06.427Z,6.57
2022-09-25T17:46:36.578Z,6.30
2022-09-25T17:49:06.847Z,6.63
2022-09-25T17:51:37.159Z,7.13
2022-09-25T17:54:11.499Z,6.68
2022-09-25T17:56:45.549Z,6.72
2022-09-25T17:59:15.907Z,6.93
2022-09-25T18:01:47.295Z,6.55
2022-09-25T18:04:22.514Z,6.20
2022-09-25T18:06:55.924Z,6.72
2022-09-25T18:09:26.864Z,7.38
2022-09-25T18:11:58.321Z,6.53
2022-09-25T18:14:28.405Z,6.28
2022-09-25T18:16:58.878Z,6.72
2022-09-25T18:19:49.375Z,7.03
2022-09-25T18:22:22.080Z,6.22
2022-09-25T18:25:05.877Z,6.03
2022-09-25T18:27:41.855Z,6.72
2022-09-25T18:30:19.224Z,6.45
2022-09-25T18:32:49.821Z,6.97
2022-09-25T18:35:23.942Z,6.50
2022-09-25T18:40:27.436Z,6.47
2022-09-25T18:43:06.844Z,6.97
2022-09-25T18:45:40.070Z,6.35
2022-09-25T18:48:12.138Z,7.45
2022-09-25T18:50:42.156Z,6.93
2022-09-25T18:53:12.453Z,7.95
2022-09-25T18:55:43.982Z,7.60
2022-09-25T18:58:15.462Z,7.93
2022-09-25T19:00:49.141Z,7.95
2022-09-25T19:03:19.346Z,7.57
2022-09-25T19:06:01.085Z,8.25
2022-09-25T19:08:34.622Z,7.82
2022-09-25T19:11:04.877Z,7.47
2022-09-25T19:13:38.260Z,7.50
2022-09-25T19:16:09.325Z,7.87
2022-09-25T19:18:39.573Z,7.03
2022-09-25T19:21:15.015Z,8.30
2022-09-25T19:23:49.324Z,7.75
2022-09-25T19:26:23.712Z,8.02
2022-09-25T19:28:55.920Z,7.80
2022-09-25T19:31:27.526Z,7.57
2022-09-25T19:33:58.263Z,7.72
2022-09-25T19:36:33.526Z,8.15
2022-09-25T19:39:04.505Z,7.90
2022-09-25T19:41:36.831Z,7.88
2022-09-25T19:44:13.649Z,7.80
2022-09-25T19:46:44.587Z,8.02
2022-09-25T19:49:16.334Z,7.60
2022-09-25T19:51:48.735Z,7.93
2022-09-25T19:54:18.808Z,8.73
2022-09-25T19:56:49.962Z,8.60
2022-09-25T19:59:21.567Z,7.68
2022-09-25T20:01:52.495Z,8.43
2022-09-25T20:04:25.204Z,7.88
2022-09-25T20:06:55.782Z,7.72
2022-09-25T20:09:26.364Z,7.45
2022-09-25T20:11:58.360Z,7.78
2022-09-25T20:14:29.745Z,7.20
2022-09-25T20:17:02.250Z,7.97
2022-09-25T20:19:33.573Z,7.85
2022-09-25T20:22:03.712Z,8.18
2022-09-25T20:24:34.049Z,8.45
2022-09-25T20:27:04.375Z,8.27
2022-09-25T20:29:38.386Z,8.38
2022-09-25T20:32:08.457Z,8.63
2022-09-25T20:34:38.635Z,8.88
2022-09-25T20:37:10.785Z,8.48
2022-09-25T20:39:41.804Z,8.63
2022-09-25T20:42:11.858Z,9.43
2022-09-25T20:44:43.184Z,7.78
2022-09-25T20:47:13.120Z,8.70
2022-09-25T20:49:44.021Z,9.60
2022-09-25T20:52:14.198Z,9.27
2022-09-25T20:54:46.840Z,8.60
2022-09-25T20:57:17.076Z,9.00
2022-09-25T20:59:48.530Z,8.52
2022-09-25T21:02:18.854Z,8.65
2022-09-25T21:04:51.195Z,9.65
2022-09-25T21:07:21.164Z,8.57
2022-09-25T21:09:51.162Z,10.35
2022-09-25T21:12:22.409Z,8.73
2022-09-25T21:14:53.701Z,8.50
2022-09-25T21:17:23.890Z,9.60
2022-09-25T21:19:54.594Z,9.07
2022-09-25T21:22:24.617Z,9.65
2022-09-25T21:24:57.258Z,9.02
2022-09-25T21:27:27.224Z,8.85
2022-09-25T21:29:58.571Z,8.93
2022-09-25T21:32:30.263Z,9.25
2022-09-25T21:35:00.256Z,8.32
2022-09-25T21:37:30.456Z,8.75
2022-09-25T21:40:00.414Z,8.95
2022-09-25T21:42:31.223Z,8.98
2022-09-25T21:45:05.111Z,8.82
2022-09-25T21:47:35.104Z,7.93
2022-09-25T21:50:05.825Z,8.25
2022-09-25T21:52:35.771Z,8.20
2022-09-25T21:55:06.592Z,8.10
2022-09-25T21:57:36.849Z,7.95
2022-09-25T22:00:10.001Z,7.97
2022-09-25T22:02:40.076Z,7.57
2022-09-25T22:05:11.427Z,7.95
2022-09-25T22:07:42.570Z,8.73
2022-09-25T22:10:12.414Z,7.88
2022-09-25T22:12:42.259Z,7.85
2022-09-25T22:15:13.861Z,7.90
2022-09-25T22:17:43.707Z,8.20
2022-09-25T22:20:13.633Z,7.60
2022-09-25T22:22:43.480Z,7.60
2022-09-25T22:25:13.331Z,8.07
2022-09-25T22:27:43.091Z,8.20
2022-09-25T22:30:14.602Z,7.65
2022-09-25T22:32:45.148Z,8.20
2022-09-25T22:35:15.028Z,7.90
2022-09-25T22:37:44.813Z,8.25
2022-09-25T22:40:14.812Z,8.10
2022-09-25T22:42:44.643Z,8.27
2022-09-25T22:45:15.954Z,7.97
2022-09-25T22:47:45.756Z,7.70
2022-09-25T22:50:15.705Z,8.07
2022-09-25T22:52:45.556Z,7.70
2022-09-25T22:55:15.506Z,7.40
2022-09-25T22:57:45.345Z,8.35
2022-09-25T23:00:16.781Z,7.95
2022-09-25T23:02:46.847Z,7.50
2022-09-25T23:05:16.784Z,7.93
2022-09-25T23:07:46.608Z,7.60
2022-09-25T23:10:16.470Z,7.82
2022-09-25T23:12:46.296Z,8.50
2022-09-25T23:15:17.592Z,7.28
2022-09-25T23:17:47.321Z,7.28
2022-09-25T23:20:17.318Z,7.43
2022-09-25T23:22:47.239Z,7.50
2022-09-25T23:25:17.850Z,7.93
2022-09-25T23:27:47.600Z,8.70
2022-09-25T23:30:19.154Z,7.88
2022-09-25T23:32:48.901Z,8.27
2022-09-25T23:35:19.009Z,8.65
2022-09-25T23:37:48.792Z,7.80
2022-09-25T23:40:18.775Z,7.68
2022-09-25T23:42:50.300Z,8.48
2022-09-25T23:45:21.507Z,8.38
2022-09-25T23:47:51.246Z,8.38
2022-09-25T23:50:21.038Z,9.05
2022-09-25T23:52:52.301Z,7.78
2022-09-25T23:55:22.128Z,7.97
2022-09-25T23:57:51.990Z,7.55
